sensor_id;sensor_type;location;lat;lon;timestamp;pressure;altitude;pressure_sealevel;temperature;humidity
46007;BME280;31738;50.188;8.524;2023-05-11T00:01:17;98530.56;;;13.50;89.41
46007;BME280;31738;50.188;8.524;2023-05-11T00:03:43;98524.66;;;13.48;89.52
46007;BME280;31738;50.188;8.524;2023-05-11T00:06:09;98529.53;;;13.46;89.23
46007;BME280;31738;50.188;8.524;2023-05-11T00:08:34;98525.56;;;13.43;89.42
46007;BME280;31738;50.188;8.524;2023-05-11T00:11:00;98530.13;;;13.43;89.50
46007;BME280;31738;50.188;8.524;2023-05-11T00:13:26;98519.97;;;13.40;89.39
46007;BME280;31738;50.188;8.524;2023-05-11T00:15:52;98522.47;;;13.36;89.67
46007;BME280;31738;50.188;8.524;2023-05-11T00:18:17;98521.97;;;13.34;89.51
46007;BME280;31738;50.188;8.524;2023-05-11T00:20:43;98523.34;;;13.32;89.69
46007;BME280;31738;50.188;8.524;2023-05-11T00:23:08;98518.25;;;13.30;89.51
46007;BME280;31738;50.188;8.524;2023-05-11T00:25:33;98516.16;;;13.27;89.63
46007;BME280;31738;50.188;8.524;2023-05-11T00:27:59;98512.16;;;13.25;89.63
46007;BME280;31738;50.188;8.524;2023-05-11T00:30:24;98515.94;;;13.24;89.59
46007;BME280;31738;50.188;8.524;2023-05-11T00:32:50;98518.34;;;13.25;89.65
46007;BME280;31738;50.188;8.524;2023-05-11T00:35:16;98515.94;;;13.24;89.42
46007;BME280;31738;50.188;8.524;2023-05-11T00:37:42;98511.16;;;13.21;89.50
46007;BME280;31738;50.188;8.524;2023-05-11T00:40:07;98508.75;;;13.19;89.82
46007;BME280;31738;50.188;8.524;2023-05-11T00:42:33;98513.63;;;13.17;89.67
46007;BME280;31738;50.188;8.524;2023-05-11T00:44:59;98510.72;;;13.14;89.66
46007;BME280;31738;50.188;8.524;2023-05-11T00:47:24;98518.31;;;13.12;89.67
46007;BME280;31738;50.188;8.524;2023-05-11T00:49:51;98505.13;;;13.10;90.00
46007;BME280;31738;50.188;8.524;2023-05-11T00:52:18;98506.22;;;13.09;89.91
46007;BME280;31738;50.188;8.524;2023-05-11T00:54:44;98507.31;;;13.08;90.03
46007;BME280;31738;50.188;8.524;2023-05-11T00:57:10;98508.72;;;13.06;89.91
46007;BME280;31738;50.188;8.524;2023-05-11T00:59:35;98513.06;;;13.02;89.57
46007;BME280;31738;50.188;8.524;2023-05-11T01:02:02;98518.25;;;12.98;89.44
46007;BME280;31738;50.188;8.524;2023-05-11T01:04:29;98514.22;;;12.96;89.80
46007;BME280;31738;50.188;8.524;2023-05-11T01:07:16;98509.44;;;12.93;89.62
46007;BME280;31738;50.188;8.524;2023-05-11T01:13:17;98512.78;;;12.85;89.78
46007;BME280;31738;50.188;8.524;2023-05-11T01:15:50;98506.41;;;12.81;90.08
46007;BME280;31738;50.188;8.524;2023-05-11T01:20:53;98504.81;;;12.80;89.88
46007;BME280;31738;50.188;8.524;2023-05-11T01:23:52;98505.38;;;12.77;90.05
46007;BME280;31738;50.188;8.524;2023-05-11T01:26:32;98501.44;;;12.69;90.37
46007;BME280;31738;50.188;8.524;2023-05-11T01:31:46;98504.13;;;12.69;90.28
46007;BME280;31738;50.188;8.524;2023-05-11T01:34:19;98496.88;;;12.70;90.31
46007;BME280;31738;50.188;8.524;2023-05-11T01:36:52;98496.06;;;12.69;90.25
46007;BME280;31738;50.188;8.524;2023-05-11T01:39:23;98494.47;;;12.68;90.19
46007;BME280;31738;50.188;8.524;2023-05-11T01:41:51;98499.56;;;12.70;90.30
46007;BME280;31738;50.188;8.524;2023-05-11T01:44:18;98491.78;;;12.68;90.37
46007;BME280;31738;50.188;8.524;2023-05-11T01:46:45;98500.16;;;12.67;90.20
46007;BME280;31738;50.188;8.524;2023-05-11T01:49:12;98503.94;;;12.66;90.15
46007;BME280;31738;50.188;8.524;2023-05-11T01:51:40;98506.13;;;12.64;90.05
46007;BME280;31738;50.188;8.524;2023-05-11T01:54:07;98504.53;;;12.63;90.17
46007;BME280;31738;50.188;8.524;2023-05-11T01:56:34;98510.50;;;12.60;89.93
46007;BME280;31738;50.188;8.524;2023-05-11T01:59:02;98505.88;;;12.60;90.14
46007;BME280;31738;50.188;8.524;2023-05-11T02:01:28;98508.88;;;12.59;89.80
46007;BME280;31738;50.188;8.524;2023-05-11T02:03:58;98508.69;;;12.55;90.00
46007;BME280;31738;50.188;8.524;2023-05-11T02:06:25;98509.25;;;12.52;90.00
46007;BME280;31738;50.188;8.524;2023-05-11T02:08:53;98504.47;;;12.49;90.07
46007;BME280;31738;50.188;8.524;2023-05-11T02:11:22;98503.66;;;12.49;90.09
46007;BME280;31738;50.188;8.524;2023-05-11T02:13:49;98509.63;;;12.46;90.00
46007;BME280;31738;50.188;8.524;2023-05-11T02:16:17;98511.78;;;12.44;90.02
46007;BME280;31738;50.188;8.524;2023-05-11T02:18:44;98517.16;;;12.44;89.84
46007;BME280;31738;50.188;8.524;2023-05-11T02:21:10;98517.16;;;12.44;89.80
46007;BME280;31738;50.188;8.524;2023-05-11T02:23:39;98518.78;;;12.45;90.15
46007;BME280;31738;50.188;8.524;2023-05-11T02:26:06;98519.56;;;12.45;90.06
46007;BME280;31738;50.188;8.524;2023-05-11T02:28:32;98515.56;;;12.43;90.23
46007;BME280;31738;50.188;8.524;2023-05-11T02:31:00;98520.97;;;12.43;90.36
46007;BME280;31738;50.188;8.524;2023-05-11T02:33:33;98522.03;;;12.42;90.51
46007;BME280;31738;50.188;8.524;2023-05-11T02:36:01;98523.72;;;12.38;90.58
46007;BME280;31738;50.188;8.524;2023-05-11T02:38:32;98518.31;;;12.38;90.63
46007;BME280;31738;50.188;8.524;2023-05-11T02:41:03;98520.22;;;12.37;90.53
46007;BME280;31738;50.188;8.524;2023-05-11T02:43:32;98515.94;;;12.36;90.48
46007;BME280;31738;50.188;8.524;2023-05-11T02:46:04;98517.31;;;12.34;90.46
46007;BME280;31738;50.188;8.524;2023-05-11T02:48:35;98518.09;;;12.34;90.21
46007;BME280;31738;50.188;8.524;2023-05-11T02:51:05;98523.75;;;12.33;90.44
46007;BME280;31738;50.188;8.524;2023-05-11T02:53:36;98517.91;;;12.31;90.52
46007;BME280;31738;50.188;8.524;2023-05-11T02:56:05;98517.09;;;12.30;90.47
46007;BME280;31738;50.188;8.524;2023-05-11T02:58:33;98514.91;;;12.32;90.38
46007;BME280;31738;50.188;8.524;2023-05-11T03:01:11;98512.28;;;12.27;90.74
46007;BME280;31738;50.188;8.524;2023-05-11T03:03:37;98510.41;;;12.28;90.55
46007;BME280;31738;50.188;8.524;2023-05-11T03:06:03;98507.19;;;12.26;90.55
46007;BME280;31738;50.188;8.524;2023-05-11T03:08:29;98509.88;;;12.26;90.44
46007;BME280;31738;50.188;8.524;2023-05-11T03:10:56;98500.72;;;12.27;90.44
46007;BME280;31738;50.188;8.524;2023-05-11T03:13:23;98509.06;;;12.25;90.76
46007;BME280;31738;50.188;8.524;2023-05-11T03:15:52;98498.63;;;12.24;90.90
46007;BME280;31738;50.188;8.524;2023-05-11T03:18:20;98501.31;;;12.24;90.78
46007;BME280;31738;50.188;8.524;2023-05-11T03:20:46;98502.91;;;12.25;90.96
46007;BME280;31738;50.188;8.524;2023-05-11T03:23:13;98509.88;;;12.26;90.85
46007;BME280;31738;50.188;8.524;2023-05-11T03:25:41;98507.78;;;12.23;90.56
46007;BME280;31738;50.188;8.524;2023-05-11T03:28:10;98503.78;;;12.20;90.68
46007;BME280;31738;50.188;8.524;2023-05-11T03:30:39;98507.84;;;12.18;90.57
46007;BME280;31738;50.188;8.524;2023-05-11T03:33:05;98510.81;;;12.16;90.83
46007;BME280;31738;50.188;8.524;2023-05-11T03:35:32;98507.06;;;12.17;90.76
46007;BME280;31738;50.188;8.524;2023-05-11T03:37:59;98513.22;;;12.18;91.00
46007;BME280;31738;50.188;8.524;2023-05-11T03:40:26;98512.63;;;12.21;90.80
46007;BME280;31738;50.188;8.524;2023-05-11T03:42:55;98512.63;;;12.21;90.71
46007;BME280;31738;50.188;8.524;2023-05-11T03:45:24;98506.78;;;12.19;90.94
46007;BME280;31738;50.188;8.524;2023-05-11T03:47:53;98514.03;;;12.18;90.88
46007;BME280;31738;50.188;8.524;2023-05-11T03:50:20;98508.41;;;12.15;90.76
46007;BME280;31738;50.188;8.524;2023-05-11T03:52:46;98515.66;;;12.14;90.95
46007;BME280;31738;50.188;8.524;2023-05-11T03:55:13;98513.78;;;12.15;90.85
46007;BME280;31738;50.188;8.524;2023-05-11T03:57:38;98512.19;;;12.14;90.88
46007;BME280;31738;50.188;8.524;2023-05-11T04:00:05;98512.69;;;12.16;90.81
46007;BME280;31738;50.188;8.524;2023-05-11T04:02:40;98517.00;;;12.17;90.85
46007;BME280;31738;50.188;8.524;2023-05-11T04:05:10;98512.44;;;12.17;90.90
46007;BME280;31738;50.188;8.524;2023-05-11T04:07:37;98511.84;;;12.20;90.90
46007;BME280;31738;50.188;8.524;2023-05-11T04:10:04;98501.88;;;12.21;90.75
46007;BME280;31738;50.188;8.524;2023-05-11T04:12:30;98513.72;;;12.20;91.15
46007;BME280;31738;50.188;8.524;2023-05-11T04:14:56;98504.84;;;12.19;90.95
46007;BME280;31738;50.188;8.524;2023-05-11T04:17:21;98517.22;;;12.20;91.28
46007;BME280;31738;50.188;8.524;2023-05-11T04:19:47;98509.47;;;12.19;91.15
46007;BME280;31738;50.188;8.524;2023-05-11T04:22:12;98510.25;;;12.19;90.86
46007;BME280;31738;50.188;8.524;2023-05-11T04:24:38;98522.63;;;12.20;91.14
46007;BME280;31738;50.188;8.524;2023-05-11T04:27:03;98519.63;;;12.22;91.29
46007;BME280;31738;50.188;8.524;2023-05-11T04:29:29;98520.13;;;12.24;91.21
46007;BME280;31738;50.188;8.524;2023-05-11T04:31:55;98513.69;;;12.25;91.02
46007;BME280;31738;50.188;8.524;2023-05-11T04:34:24;98521.47;;;12.26;90.87
46007;BME280;31738;50.188;8.524;2023-05-11T04:36:50;98525.44;;;12.29;91.50
46007;BME280;31738;50.188;8.524;2023-05-11T04:39:16;98517.91;;;12.31;91.25
46007;BME280;31738;50.188;8.524;2023-05-11T04:41:43;98518.69;;;12.31;91.51
46007;BME280;31738;50.188;8.524;2023-05-11T04:44:09;98519.72;;;12.35;91.40
46007;BME280;31738;50.188;8.524;2023-05-11T04:46:35;98521.53;;;12.40;91.54
46007;BME280;31738;50.188;8.524;2023-05-11T04:49:04;98523.66;;;12.43;91.60
46007;BME280;31738;50.188;8.524;2023-05-11T04:51:30;98523.06;;;12.46;91.64
46007;BME280;31738;50.188;8.524;2023-05-11T04:53:55;98520.88;;;12.48;92.06
46007;BME280;31738;50.188;8.524;2023-05-11T04:56:21;98523.78;;;12.51;91.98
46007;BME280;31738;50.188;8.524;2023-05-11T04:58:51;98518.63;;;12.55;91.86
46007;BME280;31738;50.188;8.524;2023-05-11T05:01:16;98518.84;;;12.58;92.30
46007;BME280;31738;50.188;8.524;2023-05-11T05:03:42;98535.19;;;12.62;91.59
46007;BME280;31738;50.188;8.524;2023-05-11T05:06:08;98517.88;;;12.68;91.83
46007;BME280;31738;50.188;8.524;2023-05-11T05:08:35;98515.72;;;12.70;91.70
46007;BME280;31738;50.188;8.524;2023-05-11T05:11:01;98524.81;;;12.74;91.95
46007;BME280;31738;50.188;8.524;2023-05-11T05:13:26;98531.19;;;12.78;92.03
46007;BME280;31738;50.188;8.524;2023-05-11T05:15:51;98524.66;;;12.84;91.94
46007;BME280;31738;50.188;8.524;2023-05-11T05:18:17;98524.00;;;12.92;92.11
46007;BME280;31738;50.188;8.524;2023-05-11T05:20:44;98533.28;;;12.99;92.17
46007;BME280;31738;50.188;8.524;2023-05-11T05:23:09;98530.25;;;13.06;91.93
46007;BME280;31738;50.188;8.524;2023-05-11T05:25:35;98531.25;;;13.10;91.47
46007;BME280;31738;50.188;8.524;2023-05-11T05:28:01;98535.75;;;13.14;91.91
46007;BME280;31738;50.188;8.524;2023-05-11T05:30:26;98531.06;;;13.20;91.91
46007;BME280;31738;50.188;8.524;2023-05-11T05:32:52;98535.31;;;13.26;91.80
46007;BME280;31738;50.188;8.524;2023-05-11T05:35:19;98539.53;;;13.32;91.92
46007;BME280;31738;50.188;8.524;2023-05-11T05:37:44;98538.34;;;13.38;91.89
46007;BME280;31738;50.188;8.524;2023-05-11T05:40:10;98530.13;;;13.43;91.87
46007;BME280;31738;50.188;8.524;2023-05-11T05:42:41;98537.34;;;13.47;91.48
46007;BME280;31738;50.188;8.524;2023-05-11T05:45:10;98543.75;;;13.51;91.65
46007;BME280;31738;50.188;8.524;2023-05-11T05:47:35;98546.38;;;13.56;91.71
46007;BME280;31738;50.188;8.524;2023-05-11T05:50:01;98547.56;;;13.64;91.94
46007;BME280;31738;50.188;8.524;2023-05-11T05:52:26;98543.69;;;13.70;91.71
46007;BME280;31738;50.188;8.524;2023-05-11T05:54:52;98554.84;;;13.77;91.71
46007;BME280;31738;50.188;8.524;2023-05-11T05:57:18;98553.19;;;13.81;91.80
46007;BME280;31738;50.188;8.524;2023-05-11T05:59:44;98552.28;;;13.86;91.88
46007;BME280;31738;50.188;8.524;2023-05-11T06:02:10;98551.38;;;13.90;91.79
46007;BME280;31738;50.188;8.524;2023-05-11T06:04:39;98560.16;;;13.96;91.78
46007;BME280;31738;50.188;8.524;2023-05-11T06:07:06;98558.28;;;13.96;91.41
46007;BME280;31738;50.188;8.524;2023-05-11T06:09:32;98556.56;;;14.00;91.49
46007;BME280;31738;50.188;8.524;2023-05-11T06:11:58;98561.56;;;14.07;91.29
46007;BME280;31738;50.188;8.524;2023-05-11T06:14:24;98557.16;;;14.11;91.29
46007;BME280;31738;50.188;8.524;2023-05-11T06:16:50;98565.75;;;14.13;91.21
46007;BME280;31738;50.188;8.524;2023-05-11T06:19:15;98569.75;;;14.15;91.01
46007;BME280;31738;50.188;8.524;2023-05-11T06:21:41;98569.16;;;14.18;91.00
46007;BME280;31738;50.188;8.524;2023-05-11T06:24:09;98569.66;;;14.20;91.00
46007;BME280;31738;50.188;8.524;2023-05-11T06:26:37;98573.38;;;14.24;91.14
46007;BME280;31738;50.188;8.524;2023-05-11T06:29:02;98573.06;;;14.26;90.66
46007;BME280;31738;50.188;8.524;2023-05-11T06:31:29;98582.19;;;14.30;90.65
46007;BME280;31738;50.188;8.524;2023-05-11T06:33:55;98568.38;;;14.31;90.32
46007;BME280;31738;50.188;8.524;2023-05-11T06:36:24;98566.69;;;14.35;89.98
46007;BME280;31738;50.188;8.524;2023-05-11T06:38:49;98569.88;;;14.37;89.93
46007;BME280;31738;50.188;8.524;2023-05-11T06:41:15;98571.38;;;14.43;89.91
46007;BME280;31738;50.188;8.524;2023-05-11T06:43:40;98575.34;;;14.46;89.50
46007;BME280;31738;50.188;8.524;2023-05-11T06:46:17;98583.16;;;14.47;89.40
46007;BME280;31738;50.188;8.524;2023-05-11T06:48:43;98583.06;;;14.52;89.31
46007;BME280;31738;50.188;8.524;2023-05-11T06:51:09;98587.84;;;14.55;89.24
46007;BME280;31738;50.188;8.524;2023-05-11T06:53:36;98582.94;;;14.57;89.02
46007;BME280;31738;50.188;8.524;2023-05-11T06:56:02;98594.22;;;14.59;89.00
46007;BME280;31738;50.188;8.524;2023-05-11T06:58:28;98598.75;;;14.64;88.67
46007;BME280;31738;50.188;8.524;2023-05-11T07:00:53;98590.81;;;14.67;88.51
46007;BME280;31738;50.188;8.524;2023-05-11T07:03:19;98590.72;;;14.72;88.62
46007;BME280;31738;50.188;8.524;2023-05-11T07:05:44;98603.19;;;14.82;88.55
46007;BME280;31738;50.188;8.524;2023-05-11T07:08:10;98595.16;;;14.90;88.15
46007;BME280;31738;50.188;8.524;2023-05-11T07:10:35;98604.06;;;14.91;87.78
46007;BME280;31738;50.188;8.524;2023-05-11T07:13:01;98605.06;;;14.95;87.51
46007;BME280;31738;50.188;8.524;2023-05-11T07:15:26;98609.06;;;14.97;87.66
46007;BME280;31738;50.188;8.524;2023-05-11T07:17:52;98606.22;;;15.02;87.50
46007;BME280;31738;50.188;8.524;2023-05-11T07:20:17;98605.00;;;15.08;87.46
46007;BME280;31738;50.188;8.524;2023-05-11T07:22:43;98605.09;;;15.17;87.21
46007;BME280;31738;50.188;8.524;2023-05-11T07:25:08;98605.16;;;15.25;87.16
46007;BME280;31738;50.188;8.524;2023-05-11T07:27:34;98615.59;;;15.18;86.42
46007;BME280;31738;50.188;8.524;2023-05-11T07:30:00;98614.88;;;15.26;86.56
46007;BME280;31738;50.188;8.524;2023-05-11T07:32:25;98609.81;;;15.33;86.72
46007;BME280;31738;50.188;8.524;2023-05-11T07:34:50;98614.94;;;15.35;86.02
46007;BME280;31738;50.188;8.524;2023-05-11T07:37:16;98620.03;;;15.36;86.15
46007;BME280;31738;50.188;8.524;2023-05-11T07:39:42;98629.25;;;15.35;85.53
46007;BME280;31738;50.188;8.524;2023-05-11T07:42:07;98620.03;;;15.36;85.36
46007;BME280;31738;50.188;8.524;2023-05-11T07:44:33;98622.16;;;15.39;85.27
46007;BME280;31738;50.188;8.524;2023-05-11T07:46:59;98619.03;;;15.46;85.76
46007;BME280;31738;50.188;8.524;2023-05-11T07:49:24;98623.00;;;15.49;84.86
46007;BME280;31738;50.188;8.524;2023-05-11T07:51:50;98635.44;;;15.50;84.96
46007;BME280;31738;50.188;8.524;2023-05-11T07:54:16;98631.63;;;15.51;84.80
46007;BME280;31738;50.188;8.524;2023-05-11T07:56:42;98629.88;;;15.55;84.79
46007;BME280;31738;50.188;8.524;2023-05-11T07:59:07;98638.50;;;15.57;84.39
46007;BME280;31738;50.188;8.524;2023-05-11T08:01:33;98634.97;;;15.56;84.74
46007;BME280;31738;50.188;8.524;2023-05-11T08:03:58;98631.50;;;15.56;84.58
46007;BME280;31738;50.188;8.524;2023-05-11T08:06:24;98631.97;;;15.58;84.67
46007;BME280;31738;50.188;8.524;2023-05-11T08:08:50;98632.47;;;15.60;84.68
46007;BME280;31738;50.188;8.524;2023-05-11T08:11:15;98633.44;;;15.64;85.35
46007;BME280;31738;50.188;8.524;2023-05-11T08:13:41;98635.06;;;15.65;84.89
46007;BME280;31738;50.188;8.524;2023-05-11T08:16:06;98631.22;;;15.66;85.45
46007;BME280;31738;50.188;8.524;2023-05-11T08:18:32;98635.06;;;15.65;84.71
46007;BME280;31738;50.188;8.524;2023-05-11T08:20:57;98633.94;;;15.66;84.91
46007;BME280;31738;50.188;8.524;2023-05-11T08:23:22;98634.44;;;15.68;84.31
46007;BME280;31738;50.188;8.524;2023-05-11T08:25:53;98631.97;;;15.80;84.61
46007;BME280;31738;50.188;8.524;2023-05-11T08:28:19;98638.72;;;15.91;84.54
46007;BME280;31738;50.188;8.524;2023-05-11T08:30:45;98636.84;;;16.00;84.22
46007;BME280;31738;50.188;8.524;2023-05-11T08:33:11;98636.22;;;16.03;84.29
46007;BME280;31738;50.188;8.524;2023-05-11T08:35:39;98639.91;;;16.07;83.54
46007;BME280;31738;50.188;8.524;2023-05-11T08:38:05;98647.44;;;15.88;83.42
46007;BME280;31738;50.188;8.524;2023-05-11T08:40:31;98648.72;;;15.90;83.88
46007;BME280;31738;50.188;8.524;2023-05-11T08:42:58;98643.69;;;15.97;84.16
46007;BME280;31738;50.188;8.524;2023-05-11T08:45:25;98647.19;;;15.98;83.68
46007;BME280;31738;50.188;8.524;2023-05-11T08:47:51;98644.97;;;16.00;84.16
46007;BME280;31738;50.188;8.524;2023-05-11T08:50:17;98645.47;;;16.02;83.67
46007;BME280;31738;50.188;8.524;2023-05-11T08:52:43;98649.44;;;16.04;83.71
46007;BME280;31738;50.188;8.524;2023-05-11T08:55:09;98642.59;;;16.07;83.82
46007;BME280;31738;50.188;8.524;2023-05-11T08:57:35;98647.41;;;16.10;83.91
46007;BME280;31738;50.188;8.524;2023-05-11T09:00:02;98662.03;;;16.09;83.23
46007;BME280;31738;50.188;8.524;2023-05-11T09:02:29;98652.81;;;16.10;83.51
46007;BME280;31738;50.188;8.524;2023-05-11T09:04:56;98649.63;;;16.08;83.56
46007;BME280;31738;50.188;8.524;2023-05-11T09:07:23;98651.84;;;16.06;83.08
46007;BME280;31738;50.188;8.524;2023-05-11T09:09:48;98654.19;;;15.99;83.00
46007;BME280;31738;50.188;8.524;2023-05-11T09:12:15;98655.28;;;15.98;83.73
46007;BME280;31738;50.188;8.524;2023-05-11T09:14:41;98661.69;;;16.02;83.58
46007;BME280;31738;50.188;8.524;2023-05-11T09:17:07;98659.97;;;16.06;83.51
46007;BME280;31738;50.188;8.524;2023-05-11T09:19:33;98662.53;;;16.11;83.57
46007;BME280;31738;50.188;8.524;2023-05-11T09:21:58;98652.56;;;16.20;83.14
46007;BME280;31738;50.188;8.524;2023-05-11T09:24:24;98648.94;;;16.33;82.82
46007;BME280;31738;50.188;8.524;2023-05-11T09:27:10;98647.44;;;16.49;82.37
46007;BME280;31738;50.188;8.524;2023-05-11T09:29:36;98667.03;;;16.46;81.52
46007;BME280;31738;50.188;8.524;2023-05-11T09:32:01;98663.06;;;16.52;81.21
46007;BME280;31738;50.188;8.524;2023-05-11T09:34:27;98659.28;;;16.61;81.59
46007;BME280;31738;50.188;8.524;2023-05-11T09:36:53;98660.75;;;16.76;81.18
46007;BME280;31738;50.188;8.524;2023-05-11T09:39:30;98652.78;;;16.88;81.20
46007;BME280;31738;50.188;8.524;2023-05-11T09:42:15;98660.78;;;17.01;81.36
46007;BME280;31738;50.188;8.524;2023-05-11T09:44:42;98662.25;;;17.08;81.01
46007;BME280;31738;50.188;8.524;2023-05-11T09:47:16;98662.75;;;17.18;79.39
46007;BME280;31738;50.188;8.524;2023-05-11T09:49:44;98669.75;;;17.19;79.38
46007;BME280;31738;50.188;8.524;2023-05-11T09:52:10;98663.06;;;17.25;79.77
46007;BME280;31738;50.188;8.524;2023-05-11T09:54:41;98669.91;;;17.31;79.59
46007;BME280;31738;50.188;8.524;2023-05-11T09:57:21;98668.19;;;17.35;78.60
46007;BME280;31738;50.188;8.524;2023-05-11T09:59:47;98665.16;;;17.37;79.42
46007;BME280;31738;50.188;8.524;2023-05-11T10:02:17;98674.25;;;17.49;79.36
46007;BME280;31738;50.188;8.524;2023-05-11T10:04:42;98676.50;;;17.47;77.89
46007;BME280;31738;50.188;8.524;2023-05-11T10:07:08;98682.56;;;17.44;78.79
46007;BME280;31738;50.188;8.524;2023-05-11T10:09:34;98675.06;;;17.50;78.26
46007;BME280;31738;50.188;8.524;2023-05-11T10:12:00;98677.75;;;17.50;78.59
46007;BME280;31738;50.188;8.524;2023-05-11T10:14:27;98678.09;;;17.48;77.52
46007;BME280;31738;50.188;8.524;2023-05-11T10:16:56;98683.94;;;17.42;77.41
46007;BME280;31738;50.188;8.524;2023-05-11T10:19:22;98690.66;;;17.36;77.41
46007;BME280;31738;50.188;8.524;2023-05-11T10:21:48;98682.38;;;17.32;77.59
46007;BME280;31738;50.188;8.524;2023-05-11T10:24:14;98682.69;;;17.31;77.93
46007;BME280;31738;50.188;8.524;2023-05-11T10:26:40;98680.25;;;17.29;78.22
46007;BME280;31738;50.188;8.524;2023-05-11T10:29:06;98668.81;;;17.32;78.57
46007;BME280;31738;50.188;8.524;2023-05-11T10:31:34;98674.53;;;17.39;78.71
46007;BME280;31738;50.188;8.524;2023-05-11T10:34:00;98678.38;;;17.38;78.28
46007;BME280;31738;50.188;8.524;2023-05-11T10:36:26;98667.22;;;17.40;78.29
46007;BME280;31738;50.188;8.524;2023-05-11T10:38:52;98676.34;;;17.44;77.30
46007;BME280;31738;50.188;8.524;2023-05-11T10:50:38;98671.34;;;17.37;77.48
46007;BME280;31738;50.188;8.524;2023-05-11T10:53:18;98669.47;;;17.46;77.36
46007;BME280;31738;50.188;8.524;2023-05-11T10:56:02;98666.59;;;17.51;77.81
46007;BME280;31738;50.188;8.524;2023-05-11T10:58:46;98670.09;;;17.60;77.19
46007;BME280;31738;50.188;8.524;2023-05-11T11:06:22;98676.50;;;17.47;77.06
46007;BME280;31738;50.188;8.524;2023-05-11T11:09:00;98677.28;;;17.48;75.85
46007;BME280;31738;50.188;8.524;2023-05-11T11:11:39;98674.44;;;17.44;76.39
46007;BME280;31738;50.188;8.524;2023-05-11T11:14:08;98684.91;;;17.37;76.49
46007;BME280;31738;50.188;8.524;2023-05-11T11:16:35;98687.94;;;17.27;76.05
46007;BME280;31738;50.188;8.524;2023-05-11T11:22:01;98685.66;;;16.95;77.69
46007;BME280;31738;50.188;8.524;2023-05-11T11:27:01;98679.84;;;16.71;78.65
46007;BME280;31738;50.188;8.524;2023-05-11T11:29:28;98677.91;;;16.63;79.42
46007;BME280;31738;50.188;8.524;2023-05-11T11:31:54;98680.56;;;16.46;79.73
46007;BME280;31738;50.188;8.524;2023-05-11T11:42:14;98652.47;;;16.03;82.10
46007;BME280;31738;50.188;8.524;2023-05-11T11:44:41;98639.06;;;15.98;82.66
46007;BME280;31738;50.188;8.524;2023-05-11T11:47:14;98637.47;;;15.97;82.94
46007;BME280;31738;50.188;8.524;2023-05-11T11:54:51;98626.28;;;15.90;83.22
46007;BME280;31738;50.188;8.524;2023-05-11T11:59:58;98625.66;;;15.93;84.03
46007;BME280;31738;50.188;8.524;2023-05-11T12:02:25;98624.44;;;15.99;84.48
46007;BME280;31738;50.188;8.524;2023-05-11T12:05:17;98627.00;;;16.04;84.36
46007;BME280;31738;50.188;8.524;2023-05-11T12:07:52;98615.69;;;16.02;84.87
46007;BME280;31738;50.188;8.524;2023-05-11T12:10:20;98615.69;;;16.02;84.91
46007;BME280;31738;50.188;8.524;2023-05-11T12:12:50;98612.38;;;16.05;84.91
46007;BME280;31738;50.188;8.524;2023-05-11T12:15:29;98606.66;;;16.06;85.32
46007;BME280;31738;50.188;8.524;2023-05-11T12:17:56;98609.16;;;16.03;85.64
46007;BME280;31738;50.188;8.524;2023-05-11T12:20:22;98606.34;;;16.08;85.90
46007;BME280;31738;50.188;8.524;2023-05-11T12:22:49;98605.09;;;16.14;86.48
46007;BME280;31738;50.188;8.524;2023-05-11T12:25:15;98594.41;;;16.17;85.75
46007;BME280;31738;50.188;8.524;2023-05-11T12:30:18;98591.13;;;16.29;86.22
46007;BME280;31738;50.188;8.524;2023-05-11T12:32:44;98594.00;;;16.32;86.23
46007;BME280;31738;50.188;8.524;2023-05-11T12:35:10;98592.44;;;16.40;86.42
46007;BME280;31738;50.188;8.524;2023-05-11T12:41:06;98583.72;;;16.51;86.65
46007;BME280;31738;50.188;8.524;2023-05-11T12:43:32;98574.03;;;16.59;86.33
46007;BME280;31738;50.188;8.524;2023-05-11T12:45:57;98577.06;;;16.66;85.93
46007;BME280;31738;50.188;8.524;2023-05-11T12:48:23;98579.28;;;16.72;86.20
46007;BME280;31738;50.188;8.524;2023-05-11T12:50:48;98579.16;;;16.77;85.56
46007;BME280;31738;50.188;8.524;2023-05-11T12:53:18;98589.84;;;16.82;84.70
46007;BME280;31738;50.188;8.524;2023-05-11T12:55:44;98594.94;;;16.84;84.96
46007;BME280;31738;50.188;8.524;2023-05-11T12:58:21;98594.00;;;16.88;85.54
46007;BME280;31738;50.188;8.524;2023-05-11T13:00:54;98587.31;;;16.94;84.86
46007;BME280;31738;50.188;8.524;2023-05-11T13:03:23;98592.53;;;16.91;84.84
46007;BME280;31738;50.188;8.524;2023-05-11T13:05:49;98593.19;;;16.88;84.18
46007;BME280;31738;50.188;8.524;2023-05-11T13:08:17;98583.78;;;16.85;84.30
46007;BME280;31738;50.188;8.524;2023-05-11T13:10:43;98589.53;;;16.84;84.71
46007;BME280;31738;50.188;8.524;2023-05-11T13:13:08;98590.00;;;16.86;83.54
46007;BME280;31738;50.188;8.524;2023-05-11T13:15:49;98586.34;;;16.90;84.16
46007;BME280;31738;50.188;8.524;2023-05-11T13:18:15;98587.94;;;16.91;83.91
46007;BME280;31738;50.188;8.524;2023-05-11T13:20:41;98590.31;;;16.93;84.12
46007;BME280;31738;50.188;8.524;2023-05-11T13:23:12;98584.41;;;16.91;84.13
46007;BME280;31738;50.188;8.524;2023-05-11T13:28:14;98580.13;;;16.81;84.44
46007;BME280;31738;50.188;8.524;2023-05-11T13:30:40;98585.88;;;16.80;84.34
46007;BME280;31738;50.188;8.524;2023-05-11T13:33:06;98581.53;;;16.79;84.43
46007;BME280;31738;50.188;8.524;2023-05-11T13:35:31;98579.66;;;16.79;84.93
46007;BME280;31738;50.188;8.524;2023-05-11T13:37:57;98576.44;;;16.77;84.95
46007;BME280;31738;50.188;8.524;2023-05-11T13:40:22;98576.28;;;16.74;84.76
46007;BME280;31738;50.188;8.524;2023-05-11T13:42:47;98575.81;;;16.72;84.63
46007;BME280;31738;50.188;8.524;2023-05-11T13:45:13;98578.53;;;16.72;84.70
46007;BME280;31738;50.188;8.524;2023-05-11T13:47:39;98581.69;;;16.74;84.76
46007;BME280;31738;50.188;8.524;2023-05-11T13:50:05;98572.16;;;16.76;84.93
46007;BME280;31738;50.188;8.524;2023-05-11T13:52:30;98579.47;;;16.76;85.04
46007;BME280;31738;50.188;8.524;2023-05-11T13:54:56;98570.25;;;16.77;84.85